Arthur, Indiana
Current Conditions -  °F | °C
As of 11:35 AM on Monday 24 Nov 2014 (Local Time) from KHNB Reporting Station
Overcast Overcast  
Wind Chill: 37°   Ceiling: 2900
Heat Index: 45°   Visibility: 10mi
Dew Point: 34°   Wind: 16mph
Humidity: 66%   Direction: 240°WSW
Pressure: 29.7"   Gusts: 26mph
Location:  38.3488°N, 87.2217°W
Report Text: KHNB 241735Z AUTO 24014G23KT 10SM OVC029 07/01 A2970 RMK AO1
Loading
Personal Weather Stations






























Interactive Weather Map New forecast layout! Learn more

10-Day Weather Forecast

Advertisements
Track Severe Weather on mobile